sensor_id;sensor_type;location;lat;lon;timestamp;P1;durP1;ratioP1;P2;durP2;ratioP2
13234;SDS011;6683;48.506;9.050;2022-11-20T00:02:20;3.93;;;1.80;;
13234;SDS011;6683;48.506;9.050;2022-11-20T00:05:23;4.67;;;2.20;;
13234;SDS011;6683;48.506;9.050;2022-11-20T00:08:27;2.20;;;2.00;;
13234;SDS011;6683;48.506;9.050;2022-11-20T00:11:30;1.80;;;1.60;;
13234;SDS011;6683;48.506;9.050;2022-11-20T00:14:33;2.60;;;2.00;;
13234;SDS011;6683;48.506;9.050;2022-11-20T00:17:35;2.90;;;2.43;;
13234;SDS011;6683;48.506;9.050;2022-11-20T00:20:37;2.20;;;1.83;;
13234;SDS011;6683;48.506;9.050;2022-11-20T00:23:41;4.90;;;1.93;;
13234;SDS011;6683;48.506;9.050;2022-11-20T00:26:44;2.50;;;1.80;;
13234;SDS011;6683;48.506;9.050;2022-11-20T00:29:47;2.27;;;1.90;;
13234;SDS011;6683;48.506;9.050;2022-11-20T00:32:49;2.50;;;1.90;;
13234;SDS011;6683;48.506;9.050;2022-11-20T00:35:52;2.70;;;1.57;;
13234;SDS011;6683;48.506;9.050;2022-11-20T00:38:56;2.20;;;2.00;;
13234;SDS011;6683;48.506;9.050;2022-11-20T00:41:59;2.47;;;2.20;;
13234;SDS011;6683;48.506;9.050;2022-11-20T00:45:02;2.00;;;1.80;;
13234;SDS011;6683;48.506;9.050;2022-11-20T00:48:05;3.20;;;1.60;;
13234;SDS011;6683;48.506;9.050;2022-11-20T00:51:07;2.17;;;1.63;;
13234;SDS011;6683;48.506;9.050;2022-11-20T00:54:11;2.03;;;1.40;;
13234;SDS011;6683;48.506;9.050;2022-11-20T00:57:13;1.50;;;1.20;;
13234;SDS011;6683;48.506;9.050;2022-11-20T01:00:16;1.90;;;1.43;;
13234;SDS011;6683;48.506;9.050;2022-11-20T01:03:18;2.03;;;1.53;;
13234;SDS011;6683;48.506;9.050;2022-11-20T01:06:21;1.93;;;1.40;;
13234;SDS011;6683;48.506;9.050;2022-11-20T01:09:27;1.60;;;1.40;;
13234;SDS011;6683;48.506;9.050;2022-11-20T01:12:29;2.03;;;1.50;;
13234;SDS011;6683;48.506;9.050;2022-11-20T01:15:33;1.73;;;1.63;;
13234;SDS011;6683;48.506;9.050;2022-11-20T01:18:37;1.87;;;1.70;;
13234;SDS011;6683;48.506;9.050;2022-11-20T01:21:42;2.03;;;1.70;;
13234;SDS011;6683;48.506;9.050;2022-11-20T01:24:48;2.80;;;1.63;;
13234;SDS011;6683;48.506;9.050;2022-11-20T01:27:50;2.00;;;1.33;;
13234;SDS011;6683;48.506;9.050;2022-11-20T01:30:52;2.07;;;1.70;;
13234;SDS011;6683;48.506;9.050;2022-11-20T01:33:55;1.67;;;1.57;;
13234;SDS011;6683;48.506;9.050;2022-11-20T01:36:59;1.83;;;1.57;;
13234;SDS011;6683;48.506;9.050;2022-11-20T01:40:03;2.10;;;1.80;;
13234;SDS011;6683;48.506;9.050;2022-11-20T01:43:11;2.20;;;1.80;;
13234;SDS011;6683;48.506;9.050;2022-11-20T01:46:25;1.93;;;1.70;;
13234;SDS011;6683;48.506;9.050;2022-11-20T01:49:29;1.80;;;1.63;;
13234;SDS011;6683;48.506;9.050;2022-11-20T01:52:39;1.73;;;1.63;;
13234;SDS011;6683;48.506;9.050;2022-11-20T01:55:49;1.60;;;1.50;;
13234;SDS011;6683;48.506;9.050;2022-11-20T01:58:56;2.10;;;1.90;;
13234;SDS011;6683;48.506;9.050;2022-11-20T02:02:01;2.50;;;1.77;;
13234;SDS011;6683;48.506;9.050;2022-11-20T02:05:08;2.37;;;1.80;;
13234;SDS011;6683;48.506;9.050;2022-11-20T02:08:18;2.80;;;2.23;;
13234;SDS011;6683;48.506;9.050;2022-11-20T02:11:23;2.93;;;1.93;;
13234;SDS011;6683;48.506;9.050;2022-11-20T02:14:25;3.40;;;1.87;;
13234;SDS011;6683;48.506;9.050;2022-11-20T02:17:27;3.33;;;2.03;;
13234;SDS011;6683;48.506;9.050;2022-11-20T02:20:30;2.67;;;1.93;;
13234;SDS011;6683;48.506;9.050;2022-11-20T02:23:36;2.63;;;2.00;;
13234;SDS011;6683;48.506;9.050;2022-11-20T02:26:48;2.47;;;2.10;;
13234;SDS011;6683;48.506;9.050;2022-11-20T02:29:55;2.60;;;2.10;;
13234;SDS011;6683;48.506;9.050;2022-11-20T02:33:02;2.40;;;2.00;;
13234;SDS011;6683;48.506;9.050;2022-11-20T02:36:05;2.57;;;2.20;;
13234;SDS011;6683;48.506;9.050;2022-11-20T02:39:10;2.30;;;2.10;;
13234;SDS011;6683;48.506;9.050;2022-11-20T02:42:18;2.60;;;2.40;;
13234;SDS011;6683;48.506;9.050;2022-11-20T02:45:20;2.90;;;2.37;;
13234;SDS011;6683;48.506;9.050;2022-11-20T02:48:23;2.30;;;2.10;;
13234;SDS011;6683;48.506;9.050;2022-11-20T02:51:26;4.10;;;2.60;;
13234;SDS011;6683;48.506;9.050;2022-11-20T02:54:28;3.97;;;2.50;;
13234;SDS011;6683;48.506;9.050;2022-11-20T02:57:32;4.13;;;2.53;;
13234;SDS011;6683;48.506;9.050;2022-11-20T03:00:34;2.30;;;2.10;;
13234;SDS011;6683;48.506;9.050;2022-11-20T03:03:37;2.93;;;2.10;;
13234;SDS011;6683;48.506;9.050;2022-11-20T03:06:39;2.10;;;1.90;;
13234;SDS011;6683;48.506;9.050;2022-11-20T03:09:42;2.73;;;1.80;;
13234;SDS011;6683;48.506;9.050;2022-11-20T03:12:46;2.30;;;2.10;;
13234;SDS011;6683;48.506;9.050;2022-11-20T03:15:48;4.03;;;1.70;;
13234;SDS011;6683;48.506;9.050;2022-11-20T03:18:51;2.30;;;1.97;;
13234;SDS011;6683;48.506;9.050;2022-11-20T03:21:54;2.13;;;1.93;;
13234;SDS011;6683;48.506;9.050;2022-11-20T03:24:56;1.90;;;1.60;;
13234;SDS011;6683;48.506;9.050;2022-11-20T03:28:01;2.37;;;1.90;;
13234;SDS011;6683;48.506;9.050;2022-11-20T03:31:07;1.87;;;1.50;;
13234;SDS011;6683;48.506;9.050;2022-11-20T03:34:11;2.00;;;1.70;;
13234;SDS011;6683;48.506;9.050;2022-11-20T03:37:14;1.90;;;1.70;;
13234;SDS011;6683;48.506;9.050;2022-11-20T03:40:16;1.60;;;1.50;;
13234;SDS011;6683;48.506;9.050;2022-11-20T03:43:20;1.60;;;1.50;;
13234;SDS011;6683;48.506;9.050;2022-11-20T03:46:23;1.63;;;1.50;;
13234;SDS011;6683;48.506;9.050;2022-11-20T03:49:26;1.60;;;1.50;;
13234;SDS011;6683;48.506;9.050;2022-11-20T03:52:28;2.50;;;1.90;;
13234;SDS011;6683;48.506;9.050;2022-11-20T03:55:30;2.20;;;1.50;;
13234;SDS011;6683;48.506;9.050;2022-11-20T03:58:34;1.57;;;1.47;;
13234;SDS011;6683;48.506;9.050;2022-11-20T04:01:39;2.20;;;1.70;;
13234;SDS011;6683;48.506;9.050;2022-11-20T04:04:41;1.50;;;1.33;;
13234;SDS011;6683;48.506;9.050;2022-11-20T04:07:44;1.57;;;1.47;;
13234;SDS011;6683;48.506;9.050;2022-11-20T04:10:46;3.63;;;1.77;;
13234;SDS011;6683;48.506;9.050;2022-11-20T04:13:51;1.97;;;1.57;;
13234;SDS011;6683;48.506;9.050;2022-11-20T04:16:56;1.77;;;1.23;;
13234;SDS011;6683;48.506;9.050;2022-11-20T04:19:58;3.53;;;2.00;;
13234;SDS011;6683;48.506;9.050;2022-11-20T04:23:01;2.47;;;1.60;;
13234;SDS011;6683;48.506;9.050;2022-11-20T04:26:03;1.93;;;1.43;;
13234;SDS011;6683;48.506;9.050;2022-11-20T04:29:11;1.50;;;1.40;;
13234;SDS011;6683;48.506;9.050;2022-11-20T04:32:13;1.40;;;1.30;;
13234;SDS011;6683;48.506;9.050;2022-11-20T04:35:16;2.23;;;1.23;;
13234;SDS011;6683;48.506;9.050;2022-11-20T04:38:18;1.70;;;1.30;;
13234;SDS011;6683;48.506;9.050;2022-11-20T04:41:21;1.93;;;1.50;;
13234;SDS011;6683;48.506;9.050;2022-11-20T04:44:26;1.60;;;1.50;;
13234;SDS011;6683;48.506;9.050;2022-11-20T04:47:28;1.60;;;1.50;;
13234;SDS011;6683;48.506;9.050;2022-11-20T04:50:30;1.77;;;1.37;;
13234;SDS011;6683;48.506;9.050;2022-11-20T04:53:32;1.67;;;1.30;;
13234;SDS011;6683;48.506;9.050;2022-11-20T04:56:35;1.40;;;1.30;;
13234;SDS011;6683;48.506;9.050;2022-11-20T04:59:39;1.60;;;1.50;;
13234;SDS011;6683;48.506;9.050;2022-11-20T05:02:42;2.23;;;1.23;;
13234;SDS011;6683;48.506;9.050;2022-11-20T05:05:44;1.20;;;1.10;;
13234;SDS011;6683;48.506;9.050;2022-11-20T05:08:46;1.87;;;1.30;;
13234;SDS011;6683;48.506;9.050;2022-11-20T05:11:48;1.40;;;1.20;;
13234;SDS011;6683;48.506;9.050;2022-11-20T05:14:52;1.30;;;1.20;;
13234;SDS011;6683;48.506;9.050;2022-11-20T05:17:54;1.40;;;1.10;;
13234;SDS011;6683;48.506;9.050;2022-11-20T05:20:57;1.10;;;1.00;;
13234;SDS011;6683;48.506;9.050;2022-11-20T05:23:59;1.53;;;1.20;;
13234;SDS011;6683;48.506;9.050;2022-11-20T05:27:02;1.87;;;1.17;;
13234;SDS011;6683;48.506;9.050;2022-11-20T05:30:07;1.07;;;0.90;;
13234;SDS011;6683;48.506;9.050;2022-11-20T05:33:11;1.63;;;1.40;;
13234;SDS011;6683;48.506;9.050;2022-11-20T05:36:14;3.27;;;1.17;;
13234;SDS011;6683;48.506;9.050;2022-11-20T05:39:16;1.50;;;1.30;;
13234;SDS011;6683;48.506;9.050;2022-11-20T05:42:19;1.23;;;0.97;;
13234;SDS011;6683;48.506;9.050;2022-11-20T05:45:34;1.10;;;0.90;;
13234;SDS011;6683;48.506;9.050;2022-11-20T05:48:37;1.43;;;1.03;;
13234;SDS011;6683;48.506;9.050;2022-11-20T05:51:41;1.63;;;1.00;;
13234;SDS011;6683;48.506;9.050;2022-11-20T05:54:43;1.43;;;1.20;;
13234;SDS011;6683;48.506;9.050;2022-11-20T05:57:45;1.63;;;1.03;;
13234;SDS011;6683;48.506;9.050;2022-11-20T06:00:49;0.97;;;0.80;;
13234;SDS011;6683;48.506;9.050;2022-11-20T06:03:52;1.10;;;1.00;;
13234;SDS011;6683;48.506;9.050;2022-11-20T06:06:55;1.07;;;0.90;;
13234;SDS011;6683;48.506;9.050;2022-11-20T06:09:57;1.27;;;1.00;;
13234;SDS011;6683;48.506;9.050;2022-11-20T06:13:00;1.67;;;0.80;;
13234;SDS011;6683;48.506;9.050;2022-11-20T06:16:04;2.20;;;0.83;;
13234;SDS011;6683;48.506;9.050;2022-11-20T06:19:06;1.60;;;1.10;;
13234;SDS011;6683;48.506;9.050;2022-11-20T06:22:09;2.13;;;1.43;;
13234;SDS011;6683;48.506;9.050;2022-11-20T06:25:12;1.63;;;1.33;;
13234;SDS011;6683;48.506;9.050;2022-11-20T06:28:15;1.73;;;1.57;;
13234;SDS011;6683;48.506;9.050;2022-11-20T06:31:20;2.00;;;1.40;;
13234;SDS011;6683;48.506;9.050;2022-11-20T06:34:24;1.77;;;1.17;;
13234;SDS011;6683;48.506;9.050;2022-11-20T06:37:26;1.73;;;1.33;;
13234;SDS011;6683;48.506;9.050;2022-11-20T06:40:29;2.40;;;1.03;;
13234;SDS011;6683;48.506;9.050;2022-11-20T06:43:31;1.87;;;1.00;;
13234;SDS011;6683;48.506;9.050;2022-11-20T06:46:35;2.00;;;1.33;;
13234;SDS011;6683;48.506;9.050;2022-11-20T06:49:37;1.00;;;0.90;;
13234;SDS011;6683;48.506;9.050;2022-11-20T06:52:40;1.53;;;1.20;;
13234;SDS011;6683;48.506;9.050;2022-11-20T06:55:42;0.97;;;0.77;;
13234;SDS011;6683;48.506;9.050;2022-11-20T06:58:45;1.73;;;1.00;;
13234;SDS011;6683;48.506;9.050;2022-11-20T07:01:49;2.17;;;1.10;;
13234;SDS011;6683;48.506;9.050;2022-11-20T07:04:51;1.43;;;1.10;;
13234;SDS011;6683;48.506;9.050;2022-11-20T07:07:55;1.47;;;1.20;;
13234;SDS011;6683;48.506;9.050;2022-11-20T07:10:58;1.33;;;1.17;;
13234;SDS011;6683;48.506;9.050;2022-11-20T07:14:01;1.40;;;1.00;;
13234;SDS011;6683;48.506;9.050;2022-11-20T07:17:05;1.30;;;1.10;;
13234;SDS011;6683;48.506;9.050;2022-11-20T07:20:07;1.00;;;0.90;;
13234;SDS011;6683;48.506;9.050;2022-11-20T07:23:11;1.10;;;1.00;;
13234;SDS011;6683;48.506;9.050;2022-11-20T07:26:13;1.53;;;1.30;;
13234;SDS011;6683;48.506;9.050;2022-11-20T07:29:16;2.00;;;1.00;;
13234;SDS011;6683;48.506;9.050;2022-11-20T07:32:20;1.73;;;0.90;;
13234;SDS011;6683;48.506;9.050;2022-11-20T07:35:24;1.40;;;0.80;;
13234;SDS011;6683;48.506;9.050;2022-11-20T07:38:26;1.20;;;1.10;;
13234;SDS011;6683;48.506;9.050;2022-11-20T07:41:29;2.13;;;1.10;;
13234;SDS011;6683;48.506;9.050;2022-11-20T07:44:31;1.97;;;1.13;;
13234;SDS011;6683;48.506;9.050;2022-11-20T07:47:36;1.20;;;1.10;;
13234;SDS011;6683;48.506;9.050;2022-11-20T07:50:38;1.87;;;0.93;;
13234;SDS011;6683;48.506;9.050;2022-11-20T07:53:41;1.90;;;1.50;;
13234;SDS011;6683;48.506;9.050;2022-11-20T07:56:43;2.53;;;1.20;;
13234;SDS011;6683;48.506;9.050;2022-11-20T07:59:46;1.30;;;1.10;;
13234;SDS011;6683;48.506;9.050;2022-11-20T08:02:49;1.63;;;1.10;;
13234;SDS011;6683;48.506;9.050;2022-11-20T08:05:51;1.00;;;0.90;;
13234;SDS011;6683;48.506;9.050;2022-11-20T08:08:54;2.43;;;1.30;;
13234;SDS011;6683;48.506;9.050;2022-11-20T08:11:56;1.50;;;1.27;;
13234;SDS011;6683;48.506;9.050;2022-11-20T08:15:15;1.60;;;1.40;;
13234;SDS011;6683;48.506;9.050;2022-11-20T08:18:19;1.53;;;1.27;;
13234;SDS011;6683;48.506;9.050;2022-11-20T08:21:21;1.20;;;0.90;;
13234;SDS011;6683;48.506;9.050;2022-11-20T08:24:24;1.13;;;1.03;;
13234;SDS011;6683;48.506;9.050;2022-11-20T08:27:27;0.80;;;0.80;;
13234;SDS011;6683;48.506;9.050;2022-11-20T08:30:29;1.23;;;1.00;;
13234;SDS011;6683;48.506;9.050;2022-11-20T08:33:34;1.87;;;0.93;;
13234;SDS011;6683;48.506;9.050;2022-11-20T08:36:37;1.83;;;1.10;;
13234;SDS011;6683;48.506;9.050;2022-11-20T08:39:39;1.20;;;1.00;;
13234;SDS011;6683;48.506;9.050;2022-11-20T08:42:45;1.00;;;0.90;;
13234;SDS011;6683;48.506;9.050;2022-11-20T08:45:49;1.17;;;1.00;;
13234;SDS011;6683;48.506;9.050;2022-11-20T08:48:53;1.10;;;0.90;;
13234;SDS011;6683;48.506;9.050;2022-11-20T08:51:55;0.90;;;0.80;;
13234;SDS011;6683;48.506;9.050;2022-11-20T08:54:58;1.10;;;0.90;;
13234;SDS011;6683;48.506;9.050;2022-11-20T08:58:02;0.80;;;0.77;;
13234;SDS011;6683;48.506;9.050;2022-11-20T09:01:05;0.93;;;0.70;;
13234;SDS011;6683;48.506;9.050;2022-11-20T09:04:09;0.83;;;0.83;;
13234;SDS011;6683;48.506;9.050;2022-11-20T09:07:14;1.10;;;1.00;;
13234;SDS011;6683;48.506;9.050;2022-11-20T09:10:16;2.10;;;1.20;;
13234;SDS011;6683;48.506;9.050;2022-11-20T09:13:19;1.07;;;0.97;;
13234;SDS011;6683;48.506;9.050;2022-11-20T09:16:22;1.50;;;1.00;;
13234;SDS011;6683;48.506;9.050;2022-11-20T09:19:25;0.80;;;0.80;;
13234;SDS011;6683;48.506;9.050;2022-11-20T09:22:28;1.43;;;1.20;;
13234;SDS011;6683;48.506;9.050;2022-11-20T09:25:30;0.97;;;0.80;;
13234;SDS011;6683;48.506;9.050;2022-11-20T09:28:33;1.20;;;0.90;;
13234;SDS011;6683;48.506;9.050;2022-11-20T09:31:35;0.80;;;0.80;;
13234;SDS011;6683;48.506;9.050;2022-11-20T09:34:39;0.80;;;0.70;;
13234;SDS011;6683;48.506;9.050;2022-11-20T09:37:41;0.73;;;0.63;;
13234;SDS011;6683;48.506;9.050;2022-11-20T09:40:45;0.77;;;0.77;;
13234;SDS011;6683;48.506;9.050;2022-11-20T09:43:56;0.80;;;0.80;;
13234;SDS011;6683;48.506;9.050;2022-11-20T09:47:11;0.93;;;0.80;;
13234;SDS011;6683;48.506;9.050;2022-11-20T09:50:27;0.87;;;0.80;;
13234;SDS011;6683;48.506;9.050;2022-11-20T09:53:41;2.20;;;1.10;;
13234;SDS011;6683;48.506;9.050;2022-11-20T09:56:59;2.43;;;1.13;;
13234;SDS011;6683;48.506;9.050;2022-11-20T10:00:04;5.57;;;1.10;;
13234;SDS011;6683;48.506;9.050;2022-11-20T10:03:13;1.73;;;1.40;;
13234;SDS011;6683;48.506;9.050;2022-11-20T10:06:28;2.60;;;1.70;;
13234;SDS011;6683;48.506;9.050;2022-11-20T10:09:33;2.40;;;1.50;;
13234;SDS011;6683;48.506;9.050;2022-11-20T10:12:48;4.67;;;1.93;;
13234;SDS011;6683;48.506;9.050;2022-11-20T10:16:08;1.47;;;0.90;;
13234;SDS011;6683;48.506;9.050;2022-11-20T10:19:29;2.70;;;1.30;;
13234;SDS011;6683;48.506;9.050;2022-11-20T10:26:26;6.10;;;2.27;;
13234;SDS011;6683;48.506;9.050;2022-11-20T10:29:39;1.30;;;1.03;;
13234;SDS011;6683;48.506;9.050;2022-11-20T10:32:47;5.17;;;2.00;;
13234;SDS011;6683;48.506;9.050;2022-11-20T10:35:55;4.80;;;2.53;;
13234;SDS011;6683;48.506;9.050;2022-11-20T10:39:14;1.33;;;1.07;;
13234;SDS011;6683;48.506;9.050;2022-11-20T10:42:26;1.77;;;0.83;;
13234;SDS011;6683;48.506;9.050;2022-11-20T10:45:36;1.30;;;0.90;;
13234;SDS011;6683;48.506;9.050;2022-11-20T10:48:47;1.53;;;1.10;;
13234;SDS011;6683;48.506;9.050;2022-11-20T10:51:54;1.90;;;1.20;;
13234;SDS011;6683;48.506;9.050;2022-11-20T10:55:12;1.10;;;1.00;;
13234;SDS011;6683;48.506;9.050;2022-11-20T10:58:31;1.27;;;1.00;;
13234;SDS011;6683;48.506;9.050;2022-11-20T11:01:42;1.27;;;0.90;;
13234;SDS011;6683;48.506;9.050;2022-11-20T11:04:45;0.80;;;0.80;;
13234;SDS011;6683;48.506;9.050;2022-11-20T11:07:50;1.10;;;0.80;;
13234;SDS011;6683;48.506;9.050;2022-11-20T11:10:58;0.90;;;0.80;;
13234;SDS011;6683;48.506;9.050;2022-11-20T11:14:19;0.70;;;0.60;;
13234;SDS011;6683;48.506;9.050;2022-11-20T11:17:28;1.00;;;0.90;;
13234;SDS011;6683;48.506;9.050;2022-11-20T11:20:32;1.13;;;0.80;;
13234;SDS011;6683;48.506;9.050;2022-11-20T11:23:35;0.70;;;0.70;;
13234;SDS011;6683;48.506;9.050;2022-11-20T11:26:50;0.90;;;0.80;;
13234;SDS011;6683;48.506;9.050;2022-11-20T11:30:12;1.00;;;0.73;;
13234;SDS011;6683;48.506;9.050;2022-11-20T11:33:18;0.83;;;0.70;;
13234;SDS011;6683;48.506;9.050;2022-11-20T11:36:23;1.20;;;0.93;;
13234;SDS011;6683;48.506;9.050;2022-11-20T11:39:26;0.90;;;0.90;;
13234;SDS011;6683;48.506;9.050;2022-11-20T11:42:32;1.37;;;0.70;;
13234;SDS011;6683;48.506;9.050;2022-11-20T11:45:35;2.57;;;1.13;;
13234;SDS011;6683;48.506;9.050;2022-11-20T11:48:38;2.37;;;1.70;;
13234;SDS011;6683;48.506;9.050;2022-11-20T11:51:44;2.37;;;1.70;;
13234;SDS011;6683;48.506;9.050;2022-11-20T11:55:00;1.90;;;1.40;;
13234;SDS011;6683;48.506;9.050;2022-11-20T11:58:11;2.10;;;1.40;;
13234;SDS011;6683;48.506;9.050;2022-11-20T12:01:24;1.50;;;1.03;;
13234;SDS011;6683;48.506;9.050;2022-11-20T12:04:38;1.57;;;1.10;;
13234;SDS011;6683;48.506;9.050;2022-11-20T12:07:46;1.27;;;0.80;;
13234;SDS011;6683;48.506;9.050;2022-11-20T12:10:53;1.70;;;0.97;;
13234;SDS011;6683;48.506;9.050;2022-11-20T12:14:08;1.40;;;0.90;;
13234;SDS011;6683;48.506;9.050;2022-11-20T12:17:16;1.83;;;1.03;;
13234;SDS011;6683;48.506;9.050;2022-11-20T12:20:19;1.57;;;0.90;;
13234;SDS011;6683;48.506;9.050;2022-11-20T12:23:27;1.73;;;0.90;;
13234;SDS011;6683;48.506;9.050;2022-11-20T12:26:45;1.73;;;0.90;;
13234;SDS011;6683;48.506;9.050;2022-11-20T12:30:06;1.27;;;0.67;;
13234;SDS011;6683;48.506;9.050;2022-11-20T12:33:17;1.07;;;0.60;;
13234;SDS011;6683;48.506;9.050;2022-11-20T12:36:39;0.77;;;0.63;;
13234;SDS011;6683;48.506;9.050;2022-11-20T12:39:50;0.83;;;0.40;;
13234;SDS011;6683;48.506;9.050;2022-11-20T12:42:59;0.53;;;0.53;;
13234;SDS011;6683;48.506;9.050;2022-11-20T12:46:33;0.70;;;0.50;;
13234;SDS011;6683;48.506;9.050;2022-11-20T12:49:45;1.10;;;0.53;;
13234;SDS011;6683;48.506;9.050;2022-11-20T12:52:55;0.97;;;0.60;;
13234;SDS011;6683;48.506;9.050;2022-11-20T12:56:04;0.70;;;0.50;;
13234;SDS011;6683;48.506;9.050;2022-11-20T12:59:31;2.23;;;0.90;;
13234;SDS011;6683;48.506;9.050;2022-11-20T13:03:08;1.10;;;1.00;;
13234;SDS011;6683;48.506;9.050;2022-11-20T13:06:49;0.70;;;0.50;;
13234;SDS011;6683;48.506;9.050;2022-11-20T13:09:52;1.70;;;0.83;;
13234;SDS011;6683;48.506;9.050;2022-11-20T13:12:56;0.90;;;0.50;;
13234;SDS011;6683;48.506;9.050;2022-11-20T13:16:05;0.70;;;0.60;;
13234;SDS011;6683;48.506;9.050;2022-11-20T13:19:15;1.10;;;0.80;;
13234;SDS011;6683;48.506;9.050;2022-11-20T13:22:24;0.63;;;0.63;;
13234;SDS011;6683;48.506;9.050;2022-11-20T13:25:28;0.83;;;0.60;;
13234;SDS011;6683;48.506;9.050;2022-11-20T13:28:32;0.60;;;0.60;;
13234;SDS011;6683;48.506;9.050;2022-11-20T13:31:34;0.87;;;0.50;;
13234;SDS011;6683;48.506;9.050;2022-11-20T13:34:52;0.90;;;0.60;;
13234;SDS011;6683;48.506;9.050;2022-11-20T13:37:59;0.70;;;0.60;;
13234;SDS011;6683;48.506;9.050;2022-11-20T13:41:08;1.00;;;0.50;;
13234;SDS011;6683;48.506;9.050;2022-11-20T13:44:25;0.70;;;0.50;;
13234;SDS011;6683;48.506;9.050;2022-11-20T13:47:34;0.83;;;0.50;;
13234;SDS011;6683;48.506;9.050;2022-11-20T13:50:44;1.10;;;0.70;;
13234;SDS011;6683;48.506;9.050;2022-11-20T13:54:03;0.97;;;0.90;;
13234;SDS011;6683;48.506;9.050;2022-11-20T13:57:44;2.03;;;1.00;;
13234;SDS011;6683;48.506;9.050;2022-11-20T14:01:08;2.50;;;1.40;;
13234;SDS011;6683;48.506;9.050;2022-11-20T14:04:15;0.80;;;0.80;;
13234;SDS011;6683;48.506;9.050;2022-11-20T14:07:34;2.10;;;1.00;;
13234;SDS011;6683;48.506;9.050;2022-11-20T14:10:40;1.37;;;0.70;;
13234;SDS011;6683;48.506;9.050;2022-11-20T14:13:59;0.80;;;0.70;;
13234;SDS011;6683;48.506;9.050;2022-11-20T14:17:05;1.33;;;0.97;;
13234;SDS011;6683;48.506;9.050;2022-11-20T14:20:11;1.20;;;0.90;;
13234;SDS011;6683;48.506;9.050;2022-11-20T14:23:24;3.17;;;0.80;;
13234;SDS011;6683;48.506;9.050;2022-11-20T14:26:28;0.70;;;0.70;;
13234;SDS011;6683;48.506;9.050;2022-11-20T14:29:34;0.83;;;0.70;;
13234;SDS011;6683;48.506;9.050;2022-11-20T14:32:38;0.60;;;0.60;;
13234;SDS011;6683;48.506;9.050;2022-11-20T14:35:44;1.27;;;0.70;;
13234;SDS011;6683;48.506;9.050;2022-11-20T14:38:49;2.30;;;0.83;;
13234;SDS011;6683;48.506;9.050;2022-11-20T14:41:53;1.37;;;1.00;;
13234;SDS011;6683;48.506;9.050;2022-11-20T14:44:56;0.73;;;0.70;;
13234;SDS011;6683;48.506;9.050;2022-11-20T14:48:00;0.90;;;0.70;;
13234;SDS011;6683;48.506;9.050;2022-11-20T14:51:03;1.10;;;0.77;;
13234;SDS011;6683;48.506;9.050;2022-11-20T14:54:11;0.83;;;0.70;;
13234;SDS011;6683;48.506;9.050;2022-11-20T14:57:25;1.93;;;0.90;;
13234;SDS011;6683;48.506;9.050;2022-11-20T15:00:31;2.30;;;0.80;;
13234;SDS011;6683;48.506;9.050;2022-11-20T15:03:37;0.87;;;0.80;;
13234;SDS011;6683;48.506;9.050;2022-11-20T15:06:48;1.10;;;1.00;;
13234;SDS011;6683;48.506;9.050;2022-11-20T15:10:03;1.30;;;1.10;;
13234;SDS011;6683;48.506;9.050;2022-11-20T15:13:10;1.03;;;0.90;;
13234;SDS011;6683;48.506;9.050;2022-11-20T15:16:17;1.17;;;0.90;;
13234;SDS011;6683;48.506;9.050;2022-11-20T15:19:22;1.50;;;1.10;;
13234;SDS011;6683;48.506;9.050;2022-11-20T15:22:26;1.97;;;1.20;;
13234;SDS011;6683;48.506;9.050;2022-11-20T15:25:30;1.87;;;1.63;;
13234;SDS011;6683;48.506;9.050;2022-11-20T15:28:33;1.83;;;1.50;;
13234;SDS011;6683;48.506;9.050;2022-11-20T15:31:39;2.20;;;1.60;;
13234;SDS011;6683;48.506;9.050;2022-11-20T15:34:44;2.27;;;1.40;;
13234;SDS011;6683;48.506;9.050;2022-11-20T15:37:47;2.13;;;1.70;;
13234;SDS011;6683;48.506;9.050;2022-11-20T15:40:51;1.40;;;1.10;;
13234;SDS011;6683;48.506;9.050;2022-11-20T15:43:53;2.27;;;1.20;;
13234;SDS011;6683;48.506;9.050;2022-11-20T15:46:56;1.40;;;1.30;;
13234;SDS011;6683;48.506;9.050;2022-11-20T15:49:58;1.73;;;1.10;;
13234;SDS011;6683;48.506;9.050;2022-11-20T15:53:01;2.73;;;1.13;;
13234;SDS011;6683;48.506;9.050;2022-11-20T15:56:05;2.73;;;1.80;;
13234;SDS011;6683;48.506;9.050;2022-11-20T15:59:12;2.40;;;2.20;;
13234;SDS011;6683;48.506;9.050;2022-11-20T16:02:15;3.50;;;2.77;;
13234;SDS011;6683;48.506;9.050;2022-11-20T16:05:18;3.37;;;2.80;;
13234;SDS011;6683;48.506;9.050;2022-11-20T16:08:23;3.83;;;2.60;;
13234;SDS011;6683;48.506;9.050;2022-11-20T16:11:27;4.00;;;2.90;;
13234;SDS011;6683;48.506;9.050;2022-11-20T16:14:29;5.30;;;2.60;;
13234;SDS011;6683;48.506;9.050;2022-11-20T16:17:49;4.60;;;2.83;;
13234;SDS011;6683;48.506;9.050;2022-11-20T16:20:52;8.77;;;4.97;;
13234;SDS011;6683;48.506;9.050;2022-11-20T16:23:56;6.23;;;4.20;;
13234;SDS011;6683;48.506;9.050;2022-11-20T16:27:01;6.80;;;3.80;;
13234;SDS011;6683;48.506;9.050;2022-11-20T16:30:03;6.47;;;3.10;;
13234;SDS011;6683;48.506;9.050;2022-11-20T16:33:09;3.43;;;2.73;;
13234;SDS011;6683;48.506;9.050;2022-11-20T16:36:13;4.50;;;2.73;;
13234;SDS011;6683;48.506;9.050;2022-11-20T16:39:16;3.60;;;2.50;;
13234;SDS011;6683;48.506;9.050;2022-11-20T16:42:20;4.00;;;2.47;;
13234;SDS011;6683;48.506;9.050;2022-11-20T16:45:23;2.77;;;2.57;;
13234;SDS011;6683;48.506;9.050;2022-11-20T16:48:25;2.27;;;1.70;;
13234;SDS011;6683;48.506;9.050;2022-11-20T16:51:29;1.27;;;1.10;;
13234;SDS011;6683;48.506;9.050;2022-11-20T16:54:34;1.53;;;1.10;;
13234;SDS011;6683;48.506;9.050;2022-11-20T16:57:38;1.20;;;0.90;;
13234;SDS011;6683;48.506;9.050;2022-11-20T17:00:41;2.40;;;1.20;;
13234;SDS011;6683;48.506;9.050;2022-11-20T17:03:44;4.73;;;3.70;;
13234;SDS011;6683;48.506;9.050;2022-11-20T17:06:48;1.63;;;1.40;;
13234;SDS011;6683;48.506;9.050;2022-11-20T17:09:51;1.67;;;1.40;;
13234;SDS011;6683;48.506;9.050;2022-11-20T17:12:55;1.00;;;0.90;;
13234;SDS011;6683;48.506;9.050;2022-11-20T17:15:59;2.07;;;1.17;;
13234;SDS011;6683;48.506;9.050;2022-11-20T17:19:03;1.57;;;1.00;;
13234;SDS011;6683;48.506;9.050;2022-11-20T17:22:07;2.27;;;1.40;;
13234;SDS011;6683;48.506;9.050;2022-11-20T17:25:09;1.40;;;1.30;;
13234;SDS011;6683;48.506;9.050;2022-11-20T17:28:13;2.07;;;1.73;;
13234;SDS011;6683;48.506;9.050;2022-11-20T17:31:16;1.73;;;1.60;;
13234;SDS011;6683;48.506;9.050;2022-11-20T17:34:19;2.03;;;1.67;;
13234;SDS011;6683;48.506;9.050;2022-11-20T17:37:22;2.57;;;1.73;;
13234;SDS011;6683;48.506;9.050;2022-11-20T17:40:24;3.00;;;1.27;;
13234;SDS011;6683;48.506;9.050;2022-11-20T17:43:28;1.63;;;1.53;;
13234;SDS011;6683;48.506;9.050;2022-11-20T17:46:31;2.23;;;1.57;;
13234;SDS011;6683;48.506;9.050;2022-11-20T17:49:34;1.93;;;1.60;;
13234;SDS011;6683;48.506;9.050;2022-11-20T17:52:36;1.80;;;1.57;;
13234;SDS011;6683;48.506;9.050;2022-11-20T17:55:38;3.73;;;2.00;;
13234;SDS011;6683;48.506;9.050;2022-11-20T17:58:59;3.27;;;2.07;;
13234;SDS011;6683;48.506;9.050;2022-11-20T18:02:04;2.87;;;1.87;;
13234;SDS011;6683;48.506;9.050;2022-11-20T18:05:07;2.57;;;1.97;;
13234;SDS011;6683;48.506;9.050;2022-11-20T18:08:10;3.30;;;1.90;;
13234;SDS011;6683;48.506;9.050;2022-11-20T18:11:13;3.00;;;1.90;;
13234;SDS011;6683;48.506;9.050;2022-11-20T18:14:19;2.27;;;1.50;;
13234;SDS011;6683;48.506;9.050;2022-11-20T18:17:31;1.43;;;1.27;;
13234;SDS011;6683;48.506;9.050;2022-11-20T18:20:34;1.47;;;1.37;;
13234;SDS011;6683;48.506;9.050;2022-11-20T18:23:36;1.10;;;1.00;;
13234;SDS011;6683;48.506;9.050;2022-11-20T18:26:39;1.23;;;1.13;;
13234;SDS011;6683;48.506;9.050;2022-11-20T18:29:45;1.40;;;1.30;;
13234;SDS011;6683;48.506;9.050;2022-11-20T18:32:50;0.97;;;0.97;;
13234;SDS011;6683;48.506;9.050;2022-11-20T18:35:53;3.93;;;2.20;;
13234;SDS011;6683;48.506;9.050;2022-11-20T18:38:56;1.43;;;1.30;;
13234;SDS011;6683;48.506;9.050;2022-11-20T18:42:00;1.60;;;1.10;;
13234;SDS011;6683;48.506;9.050;2022-11-20T18:45:22;2.47;;;1.50;;
13234;SDS011;6683;48.506;9.050;2022-11-20T18:48:24;1.10;;;0.90;;
13234;SDS011;6683;48.506;9.050;2022-11-20T18:51:26;1.23;;;1.00;;
13234;SDS011;6683;48.506;9.050;2022-11-20T18:54:28;0.93;;;0.80;;
13234;SDS011;6683;48.506;9.050;2022-11-20T18:57:31;1.87;;;1.70;;
13234;SDS011;6683;48.506;9.050;2022-11-20T19:00:35;1.93;;;1.53;;